Time;durP1;ratioP1;P1;durP2;ratioP2;P2;SDS_P1;SDS_P2;PMS_P1;PMS_P2;Temp;Humidity;BMP_temperature;BMP_pressure;BME280_temperature;BME280_humidity;BME280_pressure;Samples;Min_cycle;Max_cycle;Signal;HPM_P1;HPM_P2
2024/02/05 00:00:44;;;;;;;39.70;20.70;;;5.10;99.90;;;;;;6208108;23;20055;-76
2024/02/05 00:03:10;;;;;;;39.13;18.93;;;5.10;99.90;;;;;;6208377;23;19997;-79
2024/02/05 00:05:36;;;;;;;44.00;21.67;;;5.20;99.90;;;;;;6208246;23;20005;-77
2024/02/05 00:08:05;;;;;;;43.45;21.38;;;5.20;99.90;;;;;;6207327;23;20528;-75
2024/02/05 00:10:31;;;;;;;41.00;20.42;;;5.20;99.90;;;;;;6208055;23;20005;-80
2024/02/05 00:12:57;;;;;;;46.03;21.43;;;5.20;99.90;;;;;;6181752;23;20108;-78
2024/02/05 00:15:23;;;;;;;43.77;21.17;;;;;;;;;;6208938;23;20268;-78
2024/02/05 00:17:49;;;;;;;43.90;21.88;;;;;;;;;;6208826;23;20422;-79
2024/02/05 00:20:15;;;;;;;45.50;22.58;;;;;;;;;;6209858;23;20015;-77
2024/02/05 00:22:42;;;;;;;46.58;24.05;;;;;;;;;;6211426;23;20005;-80
2024/02/05 00:25:09;;;;;;;44.08;21.77;;;;;;;;;;6209497;23;20054;-77
2024/02/05 00:27:35;;;;;;;53.53;21.35;;;;;;;;;;6209449;23;20510;-79
2024/02/05 00:30:01;;;;;;;49.00;23.60;;;;;;;;;;6208941;23;20067;-79
2024/02/05 00:32:27;;;;;;;45.95;24.40;;;;;;;;;;6182203;23;20020;-75
2024/02/05 00:34:56;;;;;;;43.58;23.92;;;;;;;;;;6181508;23;20016;-77
2024/02/05 00:37:24;;;;;;;48.72;23.45;;;;;;;;;;6181229;23;20437;-77
2024/02/05 00:39:50;;;;;;;47.83;24.25;;;;;;;;;;6209052;23;20737;-75
2024/02/05 00:42:16;;;;;;;52.00;26.23;;;;;;;;;;6209085;23;20009;-74
2024/02/05 00:44:42;;;;;;;57.53;25.35;;;;;;;;;;6208854;23;20011;-76
2024/02/05 00:47:08;;;;;;;51.78;25.63;;;;;;;;;;6208627;23;20490;-74
2024/02/05 00:49:34;;;;;;;50.67;25.13;;;;;;;;;;6209771;23;20001;-79
2024/02/05 00:52:00;;;;;;;56.78;24.52;;;;;;;;;;6208928;23;20011;-78
2024/02/05 00:54:26;;;;;;;61.08;26.08;;;;;;;;;;6208535;23;20353;-78
2024/02/05 00:56:52;;;;;;;52.03;24.35;;;;;;;;;;6208832;23;19997;-78
2024/02/05 00:59:18;;;;;;;51.65;25.92;;;;;;;;;;6208284;23;20027;-77
2024/02/05 01:01:45;;;;;;;46.53;24.33;;;;;;;;;;6208569;23;20000;-76
2024/02/05 01:04:11;;;;;;;43.65;23.27;;;;;;;;;;6207411;23;20075;-79
2024/02/05 01:06:37;;;;;;;49.42;23.67;;;;;;;;;;6208057;23;20043;-77
2024/02/05 01:09:09;;;;;;;55.25;24.35;;;;;;;;;;6208453;23;20071;-78
2024/02/05 01:11:35;;;;;;;47.08;24.67;;;;;;;;;;6208818;23;20031;-75
2024/02/05 01:14:01;;;;;;;53.80;24.23;;;;;;;;;;6208027;23;20695;-78
2024/02/05 01:16:27;;;;;;;47.80;23.77;;;;;;;;;;6208372;23;20028;-72
2024/02/05 01:18:53;;;;;;;49.33;24.20;;;;;;;;;;6208600;23;20016;-73
2024/02/05 01:21:19;;;;;;;;;;;;;;;;;;6208455;23;20008;-72
2024/02/05 01:23:46;;;;;;;58.63;24.27;;;;;;;;;;6207047;23;20248;-75
2024/02/05 01:26:12;;;;;;;60.13;24.52;;;;;;;;;;6207363;23;20518;-76
2024/02/05 01:28:38;;;;;;;52.75;24.35;;;;;;;;;;6208351;23;20075;-76
2024/02/05 01:31:07;;;;;;;48.72;23.92;;;;;;;;;;6208562;23;20024;-79
2024/02/05 01:33:33;;;;;;;45.70;22.48;;;;;;;;;;6208101;23;20820;-78
2024/02/05 01:35:59;;;;;;;49.80;23.10;;;;;;;;;;6208037;23;20457;-76
2024/02/05 01:38:24;;;;;;;45.25;23.02;;;;;;;;;;6208425;23;20004;-78
2024/02/05 01:40:50;;;;;;;49.30;23.73;;;;;;;;;;6181274;23;20008;-74
2024/02/05 01:43:17;;;;;;;47.92;23.25;;;;;;;;;;6208333;23;20051;-77
2024/02/05 01:45:43;;;;;;;50.78;25.05;;;;;;;;;;6208632;23;20062;-73
2024/02/05 01:48:10;;;;;;;45.13;24.45;;;;;;;;;;6208357;23;20425;-74
2024/02/05 01:50:38;;;;;;;47.30;23.90;;;;;;;;;;6208731;23;20469;-72
2024/02/05 01:53:04;;;;;;;48.80;24.15;;;;;;;;;;6208544;23;20142;-78
2024/02/05 01:55:32;;;;;;;53.22;24.17;;;;;;;;;;6208593;23;20009;-73
2024/02/05 01:57:58;;;;;;;47.40;23.05;;;;;;;;;;6208114;23;20007;-72
2024/02/05 02:00:25;;;;;;;57.25;24.63;;;;;;;;;;6208989;23;20016;-73
2024/02/05 02:02:51;;;;;;;61.17;25.70;;;;;;;;;;6211588;23;20012;-73
2024/02/05 02:05:18;;;;;;;60.13;25.30;;;;;;;;;;6210055;23;20004;-76
2024/02/05 02:07:45;;;;;;;52.95;25.52;;;;;;;;;;6208278;23;20079;-78
2024/02/05 02:10:11;;;;;;;46.92;24.20;;;;;;;;;;6208066;23;20005;-75
2024/02/05 02:12:38;;;;;;;60.87;26.40;;;;;;;;;;6208622;23;20004;-79
2024/02/05 02:15:04;;;;;;;48.50;24.33;;;;;;;;;;6208207;23;20012;-77
2024/02/05 02:17:32;;;;;;;55.00;24.67;;;;;;;;;;6208016;23;20334;-77
2024/02/05 02:19:58;;;;;;;51.03;25.20;;;;;;;;;;6207755;23;20008;-75
2024/02/05 02:22:40;;;;;;;59.25;24.42;;;;;;;;;;6208257;23;20009;-72
2024/02/05 02:25:06;;;;;;;54.60;24.50;;;;;;;;;;6208219;23;20004;-73
2024/02/05 02:27:32;;;;;;;;;;;;;;;;;;6208570;23;20005;-74
2024/02/05 02:29:58;;;;;;;52.15;22.13;;;;;;;;;;6207621;23;19912;-79
2024/02/05 02:32:43;;;;;;;52.65;25.63;;;;;;;;;;6181260;23;20047;-78
2024/02/05 02:35:25;;;;;;;47.70;22.65;;;;;;;;;;6208017;23;20106;-77
2024/02/05 02:37:56;;;;;;;48.55;22.75;;;;;;;;;;6207722;23;20448;-76
2024/02/05 02:40:23;;;;;;;52.58;25.20;;;;;;;;;;6207954;23;20075;-78
2024/02/05 02:42:51;;;;;;;50.20;24.48;;;;;;;;;;6181286;23;20010;-78
2024/02/05 02:45:17;;;;;;;57.10;25.50;;;;;;;;;;6207444;23;20012;-77
2024/02/05 02:47:43;;;;;;;;;;;;;;;;;;6208496;23;20063;-75
2024/02/05 02:50:10;;;;;;;52.15;23.85;;;;;;;;;;6209031;23;19907;-72
2024/02/05 02:52:36;;;;;;;52.25;24.65;;;;;;;;;;6207491;23;20004;-73
2024/02/05 02:55:03;;;;;;;52.45;24.27;;;;;;;;;;6207622;23;20119;-75
2024/02/05 02:57:29;;;;;;;53.42;24.67;;;;;;;;;;6207662;23;20039;-78
2024/02/05 02:59:55;;;;;;;50.30;24.70;;;;;;;;;;6207598;23;20016;-76
2024/02/05 03:02:20;;;;;;;53.60;25.60;;;5.00;99.90;;;;;;6207689;23;20076;-76
2024/02/05 03:04:46;;;;;;;51.20;23.10;;;4.50;99.90;;;;;;6207423;23;20029;-76
2024/02/05 03:07:12;;;;;;;58.23;25.03;;;4.60;99.90;;;;;;6207835;23;20524;-77
2024/02/05 03:09:37;;;;;;;60.93;25.13;;;4.60;99.90;;;;;;6207805;23;20087;-78
2024/02/05 03:12:03;;;;;;;60.47;26.77;;;4.60;99.90;;;;;;6207354;23;20072;-78
2024/02/05 03:14:29;;;;;;;52.30;24.77;;;4.70;99.90;;;;;;6207573;23;20449;-78
2024/02/05 03:16:55;;;;;;;55.07;23.90;;;4.80;99.90;;;;;;6206950;23;20445;-77
2024/02/05 03:19:21;;;;;;;;;;;4.80;99.90;;;;;;6207970;23;20005;-77
2024/02/05 03:21:46;;;;;;;47.35;22.35;;;4.80;99.90;;;;;;6207111;23;20356;-77
2024/02/05 03:24:12;;;;;;;45.83;22.63;;;4.80;99.90;;;;;;6208015;23;20039;-77
2024/02/05 03:26:38;;;;;;;44.67;21.80;;;4.80;99.90;;;;;;6207527;23;20012;-78
2024/02/05 03:29:04;;;;;;;40.38;19.63;;;4.80;99.90;;;;;;6207449;23;20011;-76
2024/02/05 03:31:29;;;;;;;40.60;19.30;;;4.80;99.90;;;;;;6207293;23;20013;-78
2024/02/05 03:33:55;;;;;;;37.80;18.37;;;4.80;99.90;;;;;;6207622;23;20089;-77
2024/02/05 03:36:20;;;;;;;38.33;19.80;;;4.80;99.90;;;;;;6207518;23;20000;-76
2024/02/05 03:38:46;;;;;;;32.87;16.73;;;4.80;99.90;;;;;;6207744;23;20005;-78
2024/02/05 03:41:12;;;;;;;33.83;16.33;;;4.80;99.90;;;;;;6208528;23;20075;-79
2024/02/05 03:43:37;;;;;;;41.83;18.07;;;4.80;99.90;;;;;;6210130;23;20013;-77
2024/02/05 03:46:03;;;;;;;37.00;17.03;;;4.70;99.90;;;;;;6208193;23;19996;-79
2024/02/05 03:48:30;;;;;;;34.67;16.83;;;4.70;99.90;;;;;;6206938;23;20100;-77
2024/02/05 03:50:55;;;;;;;39.22;16.83;;;4.70;99.90;;;;;;6178810;23;20004;-76
2024/02/05 03:53:21;;;;;;;34.83;18.50;;;4.70;99.90;;;;;;6208195;23;20100;-73
2024/02/05 03:55:46;;;;;;;42.13;18.43;;;4.70;99.90;;;;;;6208135;23;20067;-73
2024/02/05 03:58:12;;;;;;;35.90;18.63;;;4.70;99.90;;;;;;6207843;23;20396;-71
2024/02/05 04:00:38;;;;;;;33.90;16.60;;;4.70;99.90;;;;;;6206989;23;20027;-71
2024/02/05 04:03:03;;;;;;;36.80;17.73;;;4.70;99.90;;;;;;6207017;23;20009;-72
2024/02/05 04:05:31;;;;;;;44.08;17.58;;;4.70;99.90;;;;;;6207386;23;20322;-73
2024/02/05 04:07:59;;;;;;;31.85;16.15;;;4.70;99.90;;;;;;6207307;23;20006;-73
2024/02/05 04:10:26;;;;;;;29.77;13.50;;;4.70;99.90;;;;;;6207278;23;20497;-72
2024/02/05 04:12:52;;;;;;;28.17;13.20;;;4.70;99.90;;;;;;6209144;23;19997;-78
2024/02/05 04:15:18;;;;;;;27.95;12.50;;;4.70;99.90;;;;;;6209121;23;20016;-77
2024/02/05 04:17:43;;;;;;;28.03;13.23;;;4.70;99.90;;;;;;6182984;23;20009;-80
2024/02/05 04:20:09;;;;;;;27.63;13.43;;;4.70;99.90;;;;;;6208774;23;20004;-76
2024/02/05 04:22:37;;;;;;;28.92;13.75;;;4.70;99.90;;;;;;6182567;23;20079;-76
2024/02/05 04:25:03;;;;;;;29.05;13.15;;;4.60;99.90;;;;;;6206306;23;20063;-79
2024/02/05 04:27:29;;;;;;;33.47;13.65;;;4.70;99.90;;;;;;6206921;23;20000;-72
2024/02/05 04:29:56;;;;;;;28.63;12.65;;;4.60;99.90;;;;;;6207603;23;20341;-74
2024/02/05 04:32:22;;;;;;;27.45;13.55;;;4.70;99.90;;;;;;6207392;23;20004;-73
2024/02/05 04:34:48;;;;;;;28.67;13.55;;;4.70;99.90;;;;;;6207491;23;20461;-74
2024/02/05 04:37:13;;;;;;;30.00;14.33;;;4.70;99.90;;;;;;6208259;23;19997;-78
2024/02/05 04:39:39;;;;;;;45.40;15.13;;;4.60;99.90;;;;;;6180355;23;20079;-73
2024/02/05 04:42:05;;;;;;;33.13;15.43;;;4.60;99.90;;;;;;6207514;23;20063;-77
2024/02/05 04:44:30;;;;;;;33.60;16.57;;;4.60;99.90;;;;;;6207530;23;20071;-84
2024/02/05 04:46:56;;;;;;;34.83;14.90;;;4.70;99.90;;;;;;6207660;23;20005;-79
2024/02/05 04:49:22;;;;;;;26.80;14.20;;;4.60;99.90;;;;;;6207719;23;20115;-76
2024/02/05 04:51:49;;;;;;;29.40;14.80;;;4.70;99.90;;;;;;6207541;23;20012;-80
2024/02/05 04:54:15;;;;;;;31.05;15.32;;;4.60;99.90;;;;;;6208528;23;20400;-76
2024/02/05 04:56:40;;;;;;;27.30;14.02;;;4.60;99.90;;;;;;6208914;23;20000;-90
2024/02/05 04:59:06;;;;;;;29.53;13.93;;;4.70;99.90;;;;;;6209127;23;20259;-78
2024/02/05 05:01:32;;;;;;;31.43;13.93;;;4.70;99.90;;;;;;6205694;23;20412;-78
2024/02/05 05:03:57;;;;;;;35.90;15.57;;;4.60;99.90;;;;;;6207842;23;20717;-86
2024/02/05 05:06:23;;;;;;;26.23;13.40;;;4.60;99.90;;;;;;6208421;23;20429;-80
2024/02/05 05:08:49;;;;;;;29.67;14.03;;;4.60;99.90;;;;;;6207825;23;20338;-89
2024/02/05 05:11:22;;;;;;;30.30;14.50;;;4.60;99.90;;;;;;6208110;23;20005;-88
2024/02/05 05:13:49;;;;;;;31.73;13.90;;;4.60;99.90;;;;;;6207655;23;20758;-82
2024/02/05 05:16:16;;;;;;;35.92;15.60;;;4.60;99.90;;;;;;6207789;23;20487;-83
2024/02/05 05:18:42;;;;;;;30.05;14.00;;;4.50;99.90;;;;;;6206838;23;20015;-82
2024/02/05 05:21:07;;;;;;;26.87;14.13;;;4.60;99.90;;;;;;6206475;23;20001;-75
2024/02/05 05:23:33;;;;;;;26.43;13.87;;;4.60;99.90;;;;;;6207816;23;20065;-87
2024/02/05 05:25:58;;;;;;;33.73;14.83;;;4.60;99.90;;;;;;6209631;23;20729;-85
2024/02/05 05:28:24;;;;;;;30.27;11.83;;;4.60;99.90;;;;;;6208659;23;20009;-86
2024/02/05 05:30:49;;;;;;;25.40;12.33;;;4.60;99.90;;;;;;6207174;23;20047;-71
2024/02/05 05:33:15;;;;;;;28.03;12.67;;;4.60;99.90;;;;;;6206082;23;20001;-75
2024/02/05 05:35:41;;;;;;;23.67;11.93;;;4.60;99.90;;;;;;6206725;23;20058;-81
2024/02/05 05:38:07;;;;;;;28.65;12.63;;;4.60;99.90;;;;;;6207028;23;20420;-72
2024/02/05 05:40:33;;;;;;;38.72;14.38;;;4.60;99.90;;;;;;6206760;23;20115;-72
2024/02/05 05:42:59;;;;;;;27.92;12.82;;;4.60;99.90;;;;;;6206728;23;20000;-71
2024/02/05 05:45:27;;;;;;;21.50;10.88;;;4.60;99.90;;;;;;6207166;23;20016;-74
2024/02/05 05:47:52;;;;;;;24.83;11.05;;;4.60;99.90;;;;;;6206634;23;20000;-77
2024/02/05 05:50:18;;;;;;;24.83;10.67;;;4.50;99.90;;;;;;6206648;23;20020;-72
2024/02/05 05:52:44;;;;;;;25.88;11.93;;;4.50;99.90;;;;;;6206911;23;20047;-82
2024/02/05 05:55:10;;;;;;;18.70;10.05;;;4.50;99.90;;;;;;6206945;23;20000;-85
2024/02/05 05:57:35;;;;;;;25.50;11.38;;;4.50;99.90;;;;;;6207599;23;20067;-79
2024/02/05 06:00:05;;;;;;;25.80;11.00;;;4.40;99.90;;;;;;6206787;23;20087;-86
2024/02/05 06:02:31;;;;;;;26.83;11.80;;;4.50;99.90;;;;;;6206871;23;20009;-81
2024/02/05 06:04:58;;;;;;;27.25;12.07;;;4.50;99.90;;;;;;6208069;23;20008;-75
2024/02/05 06:07:23;;;;;;;24.30;12.07;;;4.40;99.90;;;;;;6207149;23;20475;-74
2024/02/05 06:09:49;;;;;;;26.27;12.93;;;4.50;99.90;;;;;;6206416;23;20004;-73
2024/02/05 06:12:16;;;;;;;24.97;11.20;;;4.50;99.90;;;;;;6207206;23;20344;-79
2024/02/05 06:14:43;;;;;;;27.42;12.85;;;4.50;99.90;;;;;;6179299;23;20040;-79
2024/02/05 06:17:08;;;;;;;25.20;11.45;;;4.50;99.90;;;;;;6206903;23;20092;-73
2024/02/05 06:19:34;;;;;;;23.60;12.53;;;4.50;99.90;;;;;;6206670;23;20460;-77
2024/02/05 06:22:00;;;;;;;30.58;12.23;;;4.50;99.90;;;;;;6206823;23;20851;-78
2024/02/05 06:24:25;;;;;;;28.73;13.00;;;4.50;99.90;;;;;;6206644;23;20008;-79
2024/02/05 06:26:51;;;;;;;25.47;11.77;;;4.50;99.90;;;;;;6206579;23;20806;-81
2024/02/05 06:29:16;;;;;;;23.80;11.70;;;4.50;99.90;;;;;;6207154;23;20012;-80
2024/02/05 06:31:42;;;;;;;20.73;10.97;;;4.50;99.90;;;;;;6206322;23;20000;-80
2024/02/05 06:34:07;;;;;;;20.93;10.83;;;4.50;99.90;;;;;;6205553;23;20060;-80
2024/02/05 06:36:33;;;;;;;20.03;10.07;;;4.60;99.90;;;;;;6206691;23;20005;-75
2024/02/05 06:39:00;;;;;;;21.53;11.33;;;4.60;99.90;;;;;;6206756;23;20072;-76
2024/02/05 06:41:25;;;;;;;24.38;11.60;;;4.50;99.90;;;;;;6206262;23;20008;-74
2024/02/05 06:43:51;;;;;;;21.97;12.00;;;4.50;99.90;;;;;;6179568;23;20489;-75
2024/02/05 06:46:17;;;;;;;20.97;11.57;;;4.60;99.90;;;;;;6206889;23;20224;-76
2024/02/05 06:48:42;;;;;;;23.93;10.87;;;4.60;99.90;;;;;;6205180;23;20012;-76
2024/02/05 06:51:08;;;;;;;20.97;10.03;;;4.60;99.90;;;;;;6205147;23;20456;-75
2024/02/05 06:53:33;;;;;;;25.07;11.03;;;4.50;99.90;;;;;;6179503;23;20013;-74
2024/02/05 06:55:59;;;;;;;20.80;10.93;;;4.40;99.90;;;;;;6206267;23;20001;-77
2024/02/05 06:58:25;;;;;;;21.27;11.35;;;4.40;99.90;;;;;;6206180;23;20016;-75
2024/02/05 07:00:50;;;;;;;20.97;10.77;;;4.60;99.90;;;;;;6203846;23;20391;-74
2024/02/05 07:03:16;;;;;;;19.60;10.60;;;4.60;99.90;;;;;;6206932;23;20015;-75
2024/02/05 07:05:42;;;;;;;22.83;11.27;;;4.60;99.90;;;;;;6203912;23;20504;-76
2024/02/05 07:08:08;;;;;;;25.35;11.48;;;4.60;99.90;;;;;;6206846;23;20000;-74
2024/02/05 07:10:33;;;;;;;24.67;11.53;;;4.60;99.90;;;;;;6184317;23;20019;-73
2024/02/05 07:12:59;;;;;;;25.80;11.27;;;4.60;99.90;;;;;;6208941;23;20008;-73
2024/02/05 07:15:25;;;;;;;22.77;10.80;;;4.60;99.90;;;;;;6179629;23;20107;-74
2024/02/05 07:17:51;;;;;;;19.00;10.60;;;4.70;99.90;;;;;;6205910;23;20004;-74
2024/02/05 07:20:17;;;;;;;23.33;10.73;;;4.70;99.90;;;;;;6206474;23;20345;-74
2024/02/05 07:22:43;;;;;;;19.80;11.03;;;4.70;99.90;;;;;;6206018;23;20008;-74
2024/02/05 07:25:08;;;;;;;24.98;12.32;;;4.70;99.90;;;;;;6205896;23;20564;-75
2024/02/05 07:27:35;;;;;;;25.83;10.77;;;4.70;99.90;;;;;;6206515;23;20013;-73
2024/02/05 07:30:01;;;;;;;22.60;11.18;;;4.70;99.90;;;;;;6206116;23;20009;-75
2024/02/05 07:32:26;;;;;;;20.13;10.82;;;4.70;99.90;;;;;;6206121;23;20634;-76
2024/02/05 07:34:52;;;;;;;18.60;10.73;;;4.80;99.90;;;;;;6205664;23;20083;-74
2024/02/05 07:37:18;;;;;;;20.10;10.57;;;4.70;99.90;;;;;;6206758;23;20324;-73
2024/02/05 07:39:44;;;;;;;23.33;10.90;;;4.80;99.90;;;;;;6205334;23;20009;-75
2024/02/05 07:42:09;;;;;;;20.53;10.53;;;4.80;99.90;;;;;;6206226;23;20035;-76
2024/02/05 07:44:35;;;;;;;23.73;11.00;;;4.80;99.90;;;;;;6205910;23;20054;-74
2024/02/05 07:47:00;;;;;;;24.90;11.00;;;4.80;99.90;;;;;;6207372;23;20317;-74
2024/02/05 07:49:27;;;;;;;21.77;10.47;;;4.80;99.90;;;;;;6208350;23;20243;-74
2024/02/05 07:51:55;;;;;;;21.92;10.70;;;4.80;99.90;;;;;;6207650;23;20050;-74
2024/02/05 07:54:23;;;;;;;26.38;11.55;;;4.80;99.90;;;;;;6208052;23;20087;-75
2024/02/05 07:56:48;;;;;;;18.30;9.73;;;4.80;99.90;;;;;;6208262;23;20388;-73
2024/02/05 07:59:14;;;;;;;24.07;11.40;;;4.80;99.90;;;;;;6207822;23;20012;-73
2024/02/05 08:01:40;;;;;;;28.37;11.70;;;4.80;99.90;;;;;;6207983;23;20239;-74
2024/02/05 08:04:05;;;;;;;27.70;11.13;;;4.80;99.90;;;;;;6207640;23;20051;-74
2024/02/05 08:06:32;;;;;;;19.58;10.88;;;4.80;99.90;;;;;;6207835;23;20032;-75
2024/02/05 08:09:01;;;;;;;22.58;11.00;;;4.80;99.90;;;;;;6207530;23;20016;-75
2024/02/05 08:11:27;;;;;;;18.52;10.27;;;4.80;99.90;;;;;;6208430;23;19997;-76
2024/02/05 08:13:53;;;;;;;18.40;10.67;;;4.80;99.90;;;;;;6207357;23;20026;-75
2024/02/05 08:16:18;;;;;;;27.02;10.98;;;4.80;99.90;;;;;;6208126;23;20012;-74
2024/02/05 08:18:45;;;;;;;30.08;12.32;;;4.80;99.90;;;;;;6208650;23;20008;-72
2024/02/05 08:21:10;;;;;;;30.20;11.25;;;4.90;99.90;;;;;;6207245;23;20012;-71
2024/02/05 08:23:40;;;;;;;31.17;11.33;;;4.90;99.90;;;;;;6208142;23;20005;-73
2024/02/05 08:26:06;;;;;;;24.63;10.88;;;5.00;99.90;;;;;;6207505;23;20076;-74
2024/02/05 08:28:32;;;;;;;21.80;11.30;;;5.00;99.90;;;;;;6207860;23;20048;-74
2024/02/05 08:30:59;;;;;;;22.92;10.98;;;4.90;99.90;;;;;;6207106;23;20005;-71
2024/02/05 08:33:25;;;;;;;21.95;12.05;;;5.00;99.90;;;;;;6206933;23;20020;-72
2024/02/05 08:35:53;;;;;;;22.85;11.45;;;5.00;99.90;;;;;;6207026;23;20039;-71
2024/02/05 08:38:19;;;;;;;24.67;11.60;;;5.00;99.90;;;;;;6207543;23;20004;-74
2024/02/05 08:40:46;;;;;;;25.10;11.50;;;5.10;99.90;;;;;;6207136;23;20011;-73
2024/02/05 08:43:11;;;;;;;24.55;11.95;;;5.00;99.90;;;;;;6179853;23;20036;-73
2024/02/05 08:45:37;;;;;;;23.38;11.07;;;5.10;99.90;;;;;;6206477;23;20039;-72
2024/02/05 08:48:04;;;;;;;23.83;10.70;;;5.10;99.90;;;;;;6206046;23;20369;-73
2024/02/05 08:50:32;;;;;;;23.13;10.85;;;5.10;99.90;;;;;;6207631;23;20239;-72
2024/02/05 08:52:58;;;;;;;24.33;12.60;;;5.00;99.90;;;;;;6209292;23;20004;-72
2024/02/05 08:55:23;;;;;;;25.97;12.03;;;5.10;99.90;;;;;;6209541;23;20031;-71
2024/02/05 08:57:50;;;;;;;28.20;12.37;;;5.10;99.90;;;;;;6208648;23;20032;-71
2024/02/05 09:00:17;;;;;;;28.08;10.98;;;5.00;99.90;;;;;;6202312;23;20016;-71
2024/02/05 09:02:43;;;;;;;27.55;11.95;;;5.10;99.90;;;;;;6177899;23;20005;-71
2024/02/05 09:05:09;;;;;;;21.02;10.73;;;5.20;99.90;;;;;;6178146;23;20093;-71
2024/02/05 09:07:35;;;;;;;26.77;10.98;;;5.20;99.90;;;;;;6177662;23;20013;-71
2024/02/05 09:10:02;;;;;;;22.08;10.88;;;5.30;99.90;;;;;;6177415;23;20001;-72
2024/02/05 09:12:27;;;;;;;26.42;11.07;;;5.30;99.90;;;;;;6177528;23;20005;-72
2024/02/05 09:14:54;;;;;;;21.97;10.80;;;5.30;99.90;;;;;;6177246;23;20024;-72
2024/02/05 09:17:19;;;;;;;;;;;5.30;99.90;;;;;;6178405;23;20036;-72
2024/02/05 09:19:46;;;;;;;25.92;10.10;;;5.30;99.90;;;;;;6177967;23;19905;-71
2024/02/05 09:22:12;;;;;;;26.58;11.82;;;5.30;99.90;;;;;;6178028;23;20005;-72
2024/02/05 09:24:37;;;;;;;31.42;12.60;;;5.30;99.90;;;;;;6178957;23;20081;-73
2024/02/05 09:27:03;;;;;;;22.53;11.97;;;5.30;99.90;;;;;;6177883;23;20346;-71
2024/02/05 09:29:29;;;;;;;34.13;12.52;;;5.30;99.90;;;;;;6178235;23;20460;-69
2024/02/05 09:31:54;;;;;;;25.37;10.80;;;5.40;99.90;;;;;;6177707;23;20017;-71
2024/02/05 09:34:20;;;;;;;20.77;9.77;;;5.40;99.90;;;;;;6177686;23;20013;-71
2024/02/05 09:36:46;;;;;;;23.40;10.65;;;5.40;99.90;;;;;;6176886;23;20346;-70
2024/02/05 09:39:12;;;;;;;29.17;10.43;;;5.40;99.90;;;;;;6177125;23;20005;-72
2024/02/05 09:41:39;;;;;;;31.23;11.83;;;5.40;99.90;;;;;;6177281;23;20480;-72
2024/02/05 09:44:06;;;;;;;27.80;11.45;;;5.40;99.90;;;;;;6177282;23;20798;-72
2024/02/05 09:46:33;;;;;;;30.25;12.50;;;5.40;99.90;;;;;;6177325;23;20080;-72
2024/02/05 09:49:00;;;;;;;29.88;11.65;;;5.50;99.90;;;;;;6177065;23;20319;-72
2024/02/05 09:51:28;;;;;;;23.52;10.90;;;5.40;99.90;;;;;;6175789;23;20013;-72
2024/02/05 09:53:53;;;;;;;27.17;10.70;;;5.40;99.90;;;;;;6176403;23;20552;-73
2024/02/05 09:56:23;;;;;;;17.10;10.50;;;5.50;99.90;;;;;;6177285;23;20031;-72
2024/02/05 09:58:48;;;;;;;24.02;10.57;;;5.60;99.90;;;;;;6183240;23;20018;-72
2024/02/05 10:01:15;;;;;;;32.13;11.18;;;5.60;99.90;;;;;;6207986;23;20088;-72
2024/02/05 10:03:41;;;;;;;;;;;5.60;99.90;;;;;;6208607;23;20430;-72
2024/02/05 10:06:10;;;;;;;26.30;10.63;;;5.60;99.90;;;;;;6206842;23;19982;-72
2024/02/05 10:08:36;;;;;;;26.17;11.15;;;5.60;99.90;;;;;;6206725;23;20048;-73
2024/02/05 10:11:03;;;;;;;24.27;10.45;;;;;;;;;;6205576;23;20000;-73
2024/02/05 10:13:30;;;;;;;29.25;11.48;;;;;;;;;;6207010;23;20012;-73
2024/02/05 10:15:56;;;;;;;27.13;10.77;;;;;;;;;;6206278;23;20001;-72
2024/02/05 10:18:22;;;;;;;27.00;11.13;;;;;;;;;;6207393;23;20011;-72
2024/02/05 10:20:48;;;;;;;22.55;10.68;;;;;;;;;;6207537;23;20062;-72
2024/02/05 10:23:14;;;;;;;23.50;11.93;;;;;;;;;;6207251;23;20487;-72
2024/02/05 10:25:40;;;;;;;24.85;10.85;;;;;;;;;;6179848;23;20012;-72
2024/02/05 10:28:06;;;;;;;24.70;11.73;;;;;;;;;;6207153;23;20004;-71
2024/02/05 10:30:33;;;;;;;28.30;10.15;;;;;;;;;;6207832;23;20015;-72
2024/02/05 10:32:59;;;;;;;22.85;10.85;;;;;;;;;;6208782;23;20026;-72
2024/02/05 10:35:25;;;;;;;;;;;;;;;;;;6207255;23;20019;-73
2024/02/05 10:37:51;;;;;;;34.30;10.73;;;;;;;;;;6207083;23;19904;-73
2024/02/05 10:40:17;;;;;;;23.55;10.32;;;;;;;;;;6207086;23;20005;-72
2024/02/05 10:42:43;;;;;;;31.80;11.35;;;;;;;;;;6207802;23;20008;-73
2024/02/05 10:45:10;;;;;;;17.38;9.68;;;;;;;;;;6207639;23;20381;-72
2024/02/05 10:47:36;;;;;;;22.52;10.35;;;;;;;;;;6207798;23;20001;-73
2024/02/05 10:50:03;;;;;;;22.67;11.10;;;;;;;;;;6207336;23;20028;-72
2024/02/05 10:52:29;;;;;;;23.83;10.75;;;;;;;;;;6206783;23;19997;-73
2024/02/05 10:54:58;;;;;;;26.52;12.05;;;;;;;;;;6207008;23;20039;-73
2024/02/05 10:57:26;;;;;;;25.98;9.63;;;;;;;;;;6207431;23;20004;-72
2024/02/05 10:59:52;;;;;;;26.38;9.82;;;;;;;;;;6206823;23;20016;-73
2024/02/05 11:02:23;;;;;;;20.42;9.77;;;5.60;99.90;;;;;;6207132;23;20721;-72
2024/02/05 11:04:51;;;;;;;24.35;10.63;;;6.00;99.90;;;;;;6205723;23;20016;-72
2024/02/05 11:07:20;;;;;;;25.75;10.55;;;6.00;99.90;;;;;;6204548;23;20007;-72
2024/02/05 11:09:48;;;;;;;21.13;9.63;;;6.00;99.90;;;;;;6204419;23;20326;-72
2024/02/05 11:12:16;;;;;;;23.77;9.88;;;6.00;99.90;;;;;;6205358;23;20012;-72
2024/02/05 11:14:45;;;;;;;31.52;10.20;;;6.00;99.90;;;;;;6205094;23;20026;-73
2024/02/05 11:17:14;;;;;;;31.55;10.55;;;6.10;99.90;;;;;;6180573;23;20353;-72
2024/02/05 11:19:41;;;;;;;22.77;10.80;;;6.20;99.90;;;;;;6206590;23;20118;-73
2024/02/05 11:22:07;;;;;;;;;;;6.20;99.90;;;;;;6208799;23;20571;-72
2024/02/05 11:24:34;;;;;;;24.40;10.40;;;6.20;99.90;;;;;;6209158;23;19934;-72
2024/02/05 11:27:02;;;;;;;17.98;10.00;;;6.30;99.90;;;;;;6209003;23;20071;-71
2024/02/05 11:29:36;;;;;;;21.75;10.32;;;6.30;99.90;;;;;;6208925;23;20015;-71
2024/02/05 11:32:05;;;;;;;20.73;10.57;;;6.30;99.90;;;;;;6207071;23;20058;-72
2024/02/05 11:34:34;;;;;;;26.80;10.45;;;6.30;99.90;;;;;;6208289;23;20019;-72
2024/02/05 11:37:07;;;;;;;21.75;10.45;;;6.30;99.90;;;;;;6208196;23;20001;-72
2024/02/05 11:39:33;;;;;;;19.88;9.30;;;6.40;99.90;;;;;;6208050;23;20008;-72
2024/02/05 11:42:08;;;;;;;21.58;8.55;;;6.40;99.90;;;;;;6207429;23;20444;-72
2024/02/05 11:44:34;;;;;;;25.88;10.00;;;6.30;99.90;;;;;;6207127;23;20004;-73
2024/02/05 11:47:00;;;;;;;20.85;9.82;;;6.30;99.90;;;;;;6207787;23;20009;-71
2024/02/05 11:49:37;;;;;;;18.60;8.75;;;6.20;99.90;;;;;;6207705;23;20030;-73
2024/02/05 11:52:03;;;;;;;17.60;9.10;;;6.30;99.90;;;;;;6207289;23;20449;-73
2024/02/05 11:54:29;;;;;;;20.00;8.38;;;6.30;99.90;;;;;;6207355;23;20026;-73
2024/02/05 11:56:56;;;;;;;17.10;8.65;;;6.40;99.90;;;;;;6207025;23;20004;-73
2024/02/05 11:59:21;;;;;;;22.35;8.43;;;6.30;99.90;;;;;;6208286;23;20023;-73
2024/02/05 12:01:47;;;;;;;24.83;10.07;;;6.40;99.90;;;;;;6207443;23;20005;-73
2024/02/05 12:04:13;;;;;;;20.70;8.98;;;6.50;99.90;;;;;;6206894;23;20008;-73
2024/02/05 12:06:39;;;;;;;18.03;8.47;;;6.50;99.90;;;;;;6208332;23;20010;-73
2024/02/05 12:09:06;;;;;;;22.23;8.30;;;6.60;99.90;;;;;;6207983;23;20012;-73
2024/02/05 12:11:35;;;;;;;19.25;8.43;;;6.60;99.90;;;;;;6209320;23;20067;-72
2024/02/05 12:14:01;;;;;;;20.33;8.77;;;;;;;;;;6210228;23;20005;-73
2024/02/05 12:16:27;;;;;;;16.63;9.10;;;;;;;;;;6208461;23;20016;-73
2024/02/05 12:18:53;;;;;;;;;;;;;;;;;;6207973;23;20011;-72
2024/02/05 12:21:20;;;;;;;18.75;9.57;;;;;;;;;;6208576;23;20319;-71
2024/02/05 12:23:46;;;;;;;21.05;9.00;;;;;;;;;;6208163;23;20088;-71
2024/02/05 12:26:12;;;;;;;22.55;9.55;;;;;;;;;;6207523;23;20036;-72
2024/02/05 12:28:39;;;;;;;23.73;8.80;;;;;;;;;;6207562;23;20011;-72
2024/02/05 12:31:05;;;;;;;21.85;8.60;;;;;;;;;;6206935;23;20009;-72
2024/02/05 12:33:31;;;;;;;22.38;8.75;;;6.60;99.90;;;;;;6207237;23;20084;-72
2024/02/05 12:36:06;;;;;;;25.30;8.63;;;6.40;99.90;;;;;;6207653;23;20044;-72
2024/02/05 12:38:32;;;;;;;19.88;7.97;;;6.70;99.90;;;;;;6207324;23;20004;-72
2024/02/05 12:40:58;;;;;;;19.58;8.13;;;6.30;99.90;;;;;;6207273;23;20015;-72
2024/02/05 12:43:29;;;;;;;18.45;8.02;;;6.20;99.90;;;;;;6208555;23;20007;-71
2024/02/05 12:45:56;;;;;;;19.52;9.07;;;6.60;99.90;;;;;;6205874;23;20084;-72
2024/02/05 12:48:22;;;;;;;;;;;6.50;99.90;;;;;;6208007;23;20005;-73
2024/02/05 12:50:52;;;;;;;28.90;9.85;;;6.30;99.90;;;;;;6207079;23;19904;-72
2024/02/05 12:53:24;;;;;;;23.50;9.02;;;6.40;99.90;;;;;;6205639;23;20468;-72
2024/02/05 12:55:53;;;;;;;19.08;9.63;;;6.80;99.90;;;;;;6207116;23;20012;-72
2024/02/05 12:58:19;;;;;;;22.80;10.02;;;6.80;99.90;;;;;;6207217;23;20001;-72
2024/02/05 13:00:45;;;;;;;28.48;11.82;;;6.60;99.90;;;;;;6207128;23;20016;-72
2024/02/05 13:03:11;;;;;;;23.83;10.77;;;6.50;99.90;;;;;;6206941;23;20075;-73
2024/02/05 13:05:43;;;;;;;26.45;11.45;;;6.40;99.90;;;;;;6206752;23;20035;-72